sensor_id;sensor_type;location;lat;lon;timestamp;temperature;humidity
75262;DHT22;63859;51.064;4.580;2023-06-04T00:00:23;15.70;70.50
75262;DHT22;63859;51.064;4.580;2023-06-04T00:02:49;15.70;70.20
75262;DHT22;63859;51.064;4.580;2023-06-04T00:05:14;15.70;70.30
75262;DHT22;63859;51.064;4.580;2023-06-04T00:07:40;15.60;69.90
75262;DHT22;63859;51.064;4.580;2023-06-04T00:10:06;15.60;70.60
75262;DHT22;63859;51.064;4.580;2023-06-04T00:12:32;15.50;70.50
75262;DHT22;63859;51.064;4.580;2023-06-04T00:14:57;15.50;70.60
75262;DHT22;63859;51.064;4.580;2023-06-04T00:17:23;15.40;71.10
75262;DHT22;63859;51.064;4.580;2023-06-04T00:19:48;15.30;71.20
75262;DHT22;63859;51.064;4.580;2023-06-04T00:22:14;15.30;71.60
75262;DHT22;63859;51.064;4.580;2023-06-04T00:24:40;15.20;71.50
75262;DHT22;63859;51.064;4.580;2023-06-04T00:27:10;15.10;71.60
75262;DHT22;63859;51.064;4.580;2023-06-04T00:29:35;15.10;71.90
75262;DHT22;63859;51.064;4.580;2023-06-04T00:32:02;15.00;71.90
75262;DHT22;63859;51.064;4.580;2023-06-04T00:34:28;15.00;73.10
75262;DHT22;63859;51.064;4.580;2023-06-04T00:36:53;14.90;72.40
75262;DHT22;63859;51.064;4.580;2023-06-04T00:39:19;14.90;72.60
75262;DHT22;63859;51.064;4.580;2023-06-04T00:41:44;14.80;72.80
75262;DHT22;63859;51.064;4.580;2023-06-04T00:44:10;14.80;73.00
75262;DHT22;63859;51.064;4.580;2023-06-04T00:46:37;14.70;73.40
75262;DHT22;63859;51.064;4.580;2023-06-04T00:49:04;14.70;73.60
75262;DHT22;63859;51.064;4.580;2023-06-04T00:51:32;14.70;74.30
75262;DHT22;63859;51.064;4.580;2023-06-04T00:53:58;14.60;74.20
75262;DHT22;63859;51.064;4.580;2023-06-04T00:56:24;14.60;74.60
75262;DHT22;63859;51.064;4.580;2023-06-04T00:58:50;14.60;74.80
75262;DHT22;63859;51.064;4.580;2023-06-04T01:04:04;14.60;75.70
75262;DHT22;63859;51.064;4.580;2023-06-04T01:06:45;14.50;75.80
75262;DHT22;63859;51.064;4.580;2023-06-04T01:09:13;14.40;76.10
75262;DHT22;63859;51.064;4.580;2023-06-04T01:11:39;14.40;76.90
75262;DHT22;63859;51.064;4.580;2023-06-04T01:14:08;14.40;77.00
75262;DHT22;63859;51.064;4.580;2023-06-04T01:16:39;14.30;77.50
75262;DHT22;63859;51.064;4.580;2023-06-04T01:22:02;14.30;78.00
75262;DHT22;63859;51.064;4.580;2023-06-04T01:24:29;14.20;78.30
75262;DHT22;63859;51.064;4.580;2023-06-04T01:26:59;14.20;78.70
75262;DHT22;63859;51.064;4.580;2023-06-04T01:29:26;14.10;79.10
75262;DHT22;63859;51.064;4.580;2023-06-04T01:31:55;14.10;79.20
75262;DHT22;63859;51.064;4.580;2023-06-04T01:34:23;14.10;79.60
75262;DHT22;63859;51.064;4.580;2023-06-04T01:36:48;14.00;80.20
75262;DHT22;63859;51.064;4.580;2023-06-04T01:39:14;14.00;80.10
75262;DHT22;63859;51.064;4.580;2023-06-04T01:41:40;13.90;80.40
75262;DHT22;63859;51.064;4.580;2023-06-04T01:44:05;13.90;80.70
75262;DHT22;63859;51.064;4.580;2023-06-04T01:46:31;13.90;81.80
75262;DHT22;63859;51.064;4.580;2023-06-04T01:48:57;13.90;81.30
75262;DHT22;63859;51.064;4.580;2023-06-04T01:51:22;13.90;81.60
75262;DHT22;63859;51.064;4.580;2023-06-04T01:53:48;13.90;81.80
75262;DHT22;63859;51.064;4.580;2023-06-04T01:56:14;13.90;82.40
75262;DHT22;63859;51.064;4.580;2023-06-04T01:58:39;13.90;82.60
75262;DHT22;63859;51.064;4.580;2023-06-04T02:01:05;13.90;82.50
75262;DHT22;63859;51.064;4.580;2023-06-04T02:03:32;13.80;82.20
75262;DHT22;63859;51.064;4.580;2023-06-04T02:06:03;13.80;82.50
75262;DHT22;63859;51.064;4.580;2023-06-04T02:08:30;13.70;82.80
75262;DHT22;63859;51.064;4.580;2023-06-04T02:10:56;13.70;83.20
75262;DHT22;63859;51.064;4.580;2023-06-04T02:13:21;13.70;83.70
75262;DHT22;63859;51.064;4.580;2023-06-04T02:15:47;13.70;83.90
75262;DHT22;63859;51.064;4.580;2023-06-04T02:18:14;13.60;83.90
75262;DHT22;63859;51.064;4.580;2023-06-04T02:20:45;13.60;84.00
75262;DHT22;63859;51.064;4.580;2023-06-04T02:23:11;13.60;84.50
75262;DHT22;63859;51.064;4.580;2023-06-04T02:25:37;13.60;84.50
75262;DHT22;63859;51.064;4.580;2023-06-04T02:28:03;13.50;85.00
75262;DHT22;63859;51.064;4.580;2023-06-04T02:30:28;13.50;85.00
75262;DHT22;63859;51.064;4.580;2023-06-04T02:32:54;13.50;85.60
75262;DHT22;63859;51.064;4.580;2023-06-04T02:35:20;13.40;85.70
75262;DHT22;63859;51.064;4.580;2023-06-04T02:37:51;13.40;86.00
75262;DHT22;63859;51.064;4.580;2023-06-04T02:40:16;13.40;86.20
75262;DHT22;63859;51.064;4.580;2023-06-04T02:42:42;13.40;86.40
75262;DHT22;63859;51.064;4.580;2023-06-04T02:45:09;13.50;86.70
75262;DHT22;63859;51.064;4.580;2023-06-04T02:47:35;13.50;86.90
75262;DHT22;63859;51.064;4.580;2023-06-04T02:50:00;13.50;86.70
75262;DHT22;63859;51.064;4.580;2023-06-04T02:52:28;13.50;87.00
75262;DHT22;63859;51.064;4.580;2023-06-04T02:54:55;13.50;87.00
75262;DHT22;63859;51.064;4.580;2023-06-04T02:57:21;13.50;87.20
75262;DHT22;63859;51.064;4.580;2023-06-04T02:59:47;13.50;87.60
75262;DHT22;63859;51.064;4.580;2023-06-04T03:02:12;13.50;88.10
75262;DHT22;63859;51.064;4.580;2023-06-04T03:04:40;13.50;88.20
75262;DHT22;63859;51.064;4.580;2023-06-04T03:07:06;13.50;88.60
75262;DHT22;63859;51.064;4.580;2023-06-04T03:09:33;13.40;88.90
75262;DHT22;63859;51.064;4.580;2023-06-04T03:12:03;13.40;88.90
75262;DHT22;63859;51.064;4.580;2023-06-04T03:14:29;13.40;89.20
75262;DHT22;63859;51.064;4.580;2023-06-04T03:17:01;13.40;89.30
75262;DHT22;63859;51.064;4.580;2023-06-04T03:19:35;13.30;89.60
75262;DHT22;63859;51.064;4.580;2023-06-04T03:22:01;13.30;90.00
75262;DHT22;63859;51.064;4.580;2023-06-04T03:24:40;13.30;90.20
75262;DHT22;63859;51.064;4.580;2023-06-04T03:27:07;13.20;90.30
75262;DHT22;63859;51.064;4.580;2023-06-04T03:29:34;13.20;90.50
75262;DHT22;63859;51.064;4.580;2023-06-04T03:32:00;13.20;90.70
75262;DHT22;63859;51.064;4.580;2023-06-04T03:34:26;13.10;90.90
75262;DHT22;63859;51.064;4.580;2023-06-04T03:36:55;13.10;91.00
75262;DHT22;63859;51.064;4.580;2023-06-04T03:39:21;13.20;91.10
75262;DHT22;63859;51.064;4.580;2023-06-04T03:41:47;13.10;91.20
75262;DHT22;63859;51.064;4.580;2023-06-04T03:44:14;13.00;91.40
75262;DHT22;63859;51.064;4.580;2023-06-04T03:46:41;13.00;91.70
75262;DHT22;63859;51.064;4.580;2023-06-04T03:49:06;13.00;91.90
75262;DHT22;63859;51.064;4.580;2023-06-04T03:51:32;12.90;92.00
75262;DHT22;63859;51.064;4.580;2023-06-04T03:53:58;12.90;92.20
75262;DHT22;63859;51.064;4.580;2023-06-04T03:56:24;13.00;92.40
75262;DHT22;63859;51.064;4.580;2023-06-04T03:58:52;12.90;92.80
75262;DHT22;63859;51.064;4.580;2023-06-04T04:01:18;12.90;92.70
75262;DHT22;63859;51.064;4.580;2023-06-04T04:03:43;12.90;92.90
75262;DHT22;63859;51.064;4.580;2023-06-04T04:06:13;12.90;93.10
75262;DHT22;63859;51.064;4.580;2023-06-04T04:08:42;12.90;93.30
75262;DHT22;63859;51.064;4.580;2023-06-04T04:11:09;12.90;93.30
75262;DHT22;63859;51.064;4.580;2023-06-04T04:13:35;12.90;93.60
75262;DHT22;63859;51.064;4.580;2023-06-04T04:16:00;12.90;93.60
75262;DHT22;63859;51.064;4.580;2023-06-04T04:18:26;12.90;93.80
75262;DHT22;63859;51.064;4.580;2023-06-04T04:20:52;12.90;94.00
75262;DHT22;63859;51.064;4.580;2023-06-04T04:23:17;12.90;94.20
75262;DHT22;63859;51.064;4.580;2023-06-04T04:25:43;12.90;94.40
75262;DHT22;63859;51.064;4.580;2023-06-04T04:28:09;12.90;94.60
75262;DHT22;63859;51.064;4.580;2023-06-04T04:30:36;12.90;94.80
75262;DHT22;63859;51.064;4.580;2023-06-04T04:33:02;12.80;95.40
75262;DHT22;63859;51.064;4.580;2023-06-04T04:35:30;12.90;95.20
75262;DHT22;63859;51.064;4.580;2023-06-04T04:38:01;12.90;95.40
75262;DHT22;63859;51.064;4.580;2023-06-04T04:40:30;12.90;95.60
75262;DHT22;63859;51.064;4.580;2023-06-04T04:42:56;12.90;95.70
75262;DHT22;63859;51.064;4.580;2023-06-04T04:45:22;13.00;95.90
75262;DHT22;63859;51.064;4.580;2023-06-04T04:47:47;13.00;96.10
75262;DHT22;63859;51.064;4.580;2023-06-04T04:50:13;13.00;96.30
75262;DHT22;63859;51.064;4.580;2023-06-04T04:52:39;13.10;96.20
75262;DHT22;63859;51.064;4.580;2023-06-04T04:55:05;13.20;96.30
75262;DHT22;63859;51.064;4.580;2023-06-04T04:57:31;13.20;96.30
75262;DHT22;63859;51.064;4.580;2023-06-04T04:59:56;13.30;96.60
75262;DHT22;63859;51.064;4.580;2023-06-04T05:02:22;13.30;96.40
75262;DHT22;63859;51.064;4.580;2023-06-04T05:04:48;13.40;96.30
75262;DHT22;63859;51.064;4.580;2023-06-04T05:07:13;13.40;96.40
75262;DHT22;63859;51.064;4.580;2023-06-04T05:09:40;13.50;96.40
75262;DHT22;63859;51.064;4.580;2023-06-04T05:12:05;13.50;96.40
75262;DHT22;63859;51.064;4.580;2023-06-04T05:14:32;13.60;96.30
75262;DHT22;63859;51.064;4.580;2023-06-04T05:16:58;13.60;96.40
75262;DHT22;63859;51.064;4.580;2023-06-04T05:19:23;13.70;96.40
75262;DHT22;63859;51.064;4.580;2023-06-04T05:21:50;13.70;96.70
75262;DHT22;63859;51.064;4.580;2023-06-04T05:24:16;13.80;96.30
75262;DHT22;63859;51.064;4.580;2023-06-04T05:26:42;13.80;96.30
75262;DHT22;63859;51.064;4.580;2023-06-04T05:29:08;13.90;96.40
75262;DHT22;63859;51.064;4.580;2023-06-04T05:31:34;14.00;96.20
75262;DHT22;63859;51.064;4.580;2023-06-04T05:34:00;14.00;96.10
75262;DHT22;63859;51.064;4.580;2023-06-04T05:36:27;14.00;96.10
75262;DHT22;63859;51.064;4.580;2023-06-04T05:38:53;14.00;96.20
75262;DHT22;63859;51.064;4.580;2023-06-04T05:41:25;14.00;96.20
75262;DHT22;63859;51.064;4.580;2023-06-04T05:43:51;14.10;96.00
75262;DHT22;63859;51.064;4.580;2023-06-04T05:46:17;14.10;96.00
75262;DHT22;63859;51.064;4.580;2023-06-04T05:48:43;14.10;95.90
75262;DHT22;63859;51.064;4.580;2023-06-04T05:51:09;14.10;95.70
75262;DHT22;63859;51.064;4.580;2023-06-04T05:53:34;14.20;95.80
75262;DHT22;63859;51.064;4.580;2023-06-04T05:56:00;14.30;96.00
75262;DHT22;63859;51.064;4.580;2023-06-04T05:58:26;14.40;96.00
75262;DHT22;63859;51.064;4.580;2023-06-04T06:00:51;14.40;95.90
75262;DHT22;63859;51.064;4.580;2023-06-04T06:03:18;14.50;95.50
75262;DHT22;63859;51.064;4.580;2023-06-04T06:05:44;14.50;95.40
75262;DHT22;63859;51.064;4.580;2023-06-04T06:08:10;14.60;95.50
75262;DHT22;63859;51.064;4.580;2023-06-04T06:10:35;14.60;95.20
75262;DHT22;63859;51.064;4.580;2023-06-04T06:13:01;14.70;94.90
75262;DHT22;63859;51.064;4.580;2023-06-04T06:15:27;14.70;94.70
75262;DHT22;63859;51.064;4.580;2023-06-04T06:17:54;14.80;94.80
75262;DHT22;63859;51.064;4.580;2023-06-04T06:20:20;14.80;94.50
75262;DHT22;63859;51.064;4.580;2023-06-04T06:22:47;14.90;94.60
75262;DHT22;63859;51.064;4.580;2023-06-04T06:25:13;14.90;94.20
75262;DHT22;63859;51.064;4.580;2023-06-04T06:27:41;15.00;94.40
75262;DHT22;63859;51.064;4.580;2023-06-04T06:30:07;15.10;94.00
75262;DHT22;63859;51.064;4.580;2023-06-04T06:32:34;15.10;93.70
75262;DHT22;63859;51.064;4.580;2023-06-04T06:35:00;15.20;93.60
75262;DHT22;63859;51.064;4.580;2023-06-04T06:37:26;15.30;93.80
75262;DHT22;63859;51.064;4.580;2023-06-04T06:39:51;15.40;93.60
75262;DHT22;63859;51.064;4.580;2023-06-04T06:42:17;15.40;93.40
75262;DHT22;63859;51.064;4.580;2023-06-04T06:44:46;15.50;92.80
75262;DHT22;63859;51.064;4.580;2023-06-04T06:47:12;15.50;92.50
75262;DHT22;63859;51.064;4.580;2023-06-04T06:49:42;15.60;92.50
75262;DHT22;63859;51.064;4.580;2023-06-04T06:52:07;15.70;92.60
75262;DHT22;63859;51.064;4.580;2023-06-04T06:54:33;15.70;92.60
75262;DHT22;63859;51.064;4.580;2023-06-04T06:56:59;15.80;92.60
75262;DHT22;63859;51.064;4.580;2023-06-04T06:59:25;15.90;92.80
75262;DHT22;63859;51.064;4.580;2023-06-04T07:01:51;16.00;92.60
75262;DHT22;63859;51.064;4.580;2023-06-04T07:04:17;16.10;92.40
75262;DHT22;63859;51.064;4.580;2023-06-04T07:06:43;16.20;91.70
75262;DHT22;63859;51.064;4.580;2023-06-04T07:09:08;16.20;91.60
75262;DHT22;63859;51.064;4.580;2023-06-04T07:11:35;16.30;91.40
75262;DHT22;63859;51.064;4.580;2023-06-04T07:14:00;16.30;91.30
75262;DHT22;63859;51.064;4.580;2023-06-04T07:16:28;16.40;91.50
75262;DHT22;63859;51.064;4.580;2023-06-04T07:18:54;16.50;91.30
75262;DHT22;63859;51.064;4.580;2023-06-04T07:21:20;16.60;91.00
75262;DHT22;63859;51.064;4.580;2023-06-04T07:23:47;16.60;90.60
75262;DHT22;63859;51.064;4.580;2023-06-04T07:26:15;16.70;90.30
75262;DHT22;63859;51.064;4.580;2023-06-04T07:28:41;16.80;90.10
75262;DHT22;63859;51.064;4.580;2023-06-04T07:31:07;16.90;90.40
75262;DHT22;63859;51.064;4.580;2023-06-04T07:33:33;17.00;90.50
75262;DHT22;63859;51.064;4.580;2023-06-04T07:35:59;17.00;90.10
75262;DHT22;63859;51.064;4.580;2023-06-04T07:38:25;17.00;90.30
75262;DHT22;63859;51.064;4.580;2023-06-04T07:40:51;17.10;90.70
75262;DHT22;63859;51.064;4.580;2023-06-04T07:43:16;17.20;90.10
75262;DHT22;63859;51.064;4.580;2023-06-04T07:45:42;17.30;90.00
75262;DHT22;63859;51.064;4.580;2023-06-04T07:48:09;17.40;90.30
75262;DHT22;63859;51.064;4.580;2023-06-04T07:50:36;17.50;88.80
75262;DHT22;63859;51.064;4.580;2023-06-04T07:53:02;17.70;89.00
75262;DHT22;63859;51.064;4.580;2023-06-04T07:55:27;17.80;87.20
75262;DHT22;63859;51.064;4.580;2023-06-04T07:57:53;17.90;89.00
75262;DHT22;63859;51.064;4.580;2023-06-04T08:00:19;18.00;87.70
75262;DHT22;63859;51.064;4.580;2023-06-04T08:02:45;18.10;87.90
75262;DHT22;63859;51.064;4.580;2023-06-04T08:05:10;18.30;86.60
75262;DHT22;63859;51.064;4.580;2023-06-04T08:07:39;18.40;85.80
75262;DHT22;63859;51.064;4.580;2023-06-04T08:10:06;18.50;86.50
75262;DHT22;63859;51.064;4.580;2023-06-04T08:12:31;18.60;84.50
75262;DHT22;63859;51.064;4.580;2023-06-04T08:14:57;18.70;82.20
75262;DHT22;63859;51.064;4.580;2023-06-04T08:17:23;18.90;82.80
75262;DHT22;63859;51.064;4.580;2023-06-04T08:19:49;19.00;80.70
75262;DHT22;63859;51.064;4.580;2023-06-04T08:22:15;19.10;78.90
75262;DHT22;63859;51.064;4.580;2023-06-04T08:24:40;19.20;79.00
75262;DHT22;63859;51.064;4.580;2023-06-04T08:27:06;19.20;80.00
75262;DHT22;63859;51.064;4.580;2023-06-04T08:29:36;19.30;79.20
75262;DHT22;63859;51.064;4.580;2023-06-04T08:32:02;19.50;78.50
75262;DHT22;63859;51.064;4.580;2023-06-04T08:34:29;19.60;77.10
75262;DHT22;63859;51.064;4.580;2023-06-04T08:36:54;19.60;77.50
75262;DHT22;63859;51.064;4.580;2023-06-04T08:39:20;19.70;75.90
75262;DHT22;63859;51.064;4.580;2023-06-04T08:41:52;19.80;78.40
75262;DHT22;63859;51.064;4.580;2023-06-04T08:44:19;19.90;77.70
75262;DHT22;63859;51.064;4.580;2023-06-04T08:46:48;20.00;75.60
75262;DHT22;63859;51.064;4.580;2023-06-04T08:49:16;20.10;76.00
75262;DHT22;63859;51.064;4.580;2023-06-04T08:51:43;20.10;75.50
75262;DHT22;63859;51.064;4.580;2023-06-04T08:54:08;20.20;75.30
75262;DHT22;63859;51.064;4.580;2023-06-04T08:56:35;20.30;74.90
75262;DHT22;63859;51.064;4.580;2023-06-04T08:59:06;20.40;74.60
75262;DHT22;63859;51.064;4.580;2023-06-04T09:01:34;20.40;74.00
75262;DHT22;63859;51.064;4.580;2023-06-04T09:04:03;20.60;74.10
75262;DHT22;63859;51.064;4.580;2023-06-04T09:06:29;20.70;73.50
75262;DHT22;63859;51.064;4.580;2023-06-04T09:08:58;20.70;74.20
75262;DHT22;63859;51.064;4.580;2023-06-04T09:11:35;20.80;74.20
75262;DHT22;63859;51.064;4.580;2023-06-04T09:14:04;21.00;74.20
75262;DHT22;63859;51.064;4.580;2023-06-04T09:16:32;21.10;72.30
75262;DHT22;63859;51.064;4.580;2023-06-04T09:19:03;21.10;70.80
75262;DHT22;63859;51.064;4.580;2023-06-04T09:21:29;21.20;71.60
75262;DHT22;63859;51.064;4.580;2023-06-04T09:23:57;21.40;72.90
75262;DHT22;63859;51.064;4.580;2023-06-04T09:26:23;21.50;70.80
75262;DHT22;63859;51.064;4.580;2023-06-04T09:28:50;21.60;71.90
75262;DHT22;63859;51.064;4.580;2023-06-04T09:31:18;21.60;70.10
75262;DHT22;63859;51.064;4.580;2023-06-04T09:33:50;21.80;71.10
75262;DHT22;63859;51.064;4.580;2023-06-04T09:36:16;21.80;69.50
75262;DHT22;63859;51.064;4.580;2023-06-04T09:38:42;21.90;70.20
75262;DHT22;63859;51.064;4.580;2023-06-04T09:41:16;21.90;69.40
75262;DHT22;63859;51.064;4.580;2023-06-04T09:43:42;22.00;69.20
75262;DHT22;63859;51.064;4.580;2023-06-04T09:46:18;22.10;68.40
75262;DHT22;63859;51.064;4.580;2023-06-04T09:48:45;22.20;70.70
75262;DHT22;63859;51.064;4.580;2023-06-04T09:51:15;22.40;69.60
75262;DHT22;63859;51.064;4.580;2023-06-04T09:53:41;22.40;69.50
75262;DHT22;63859;51.064;4.580;2023-06-04T09:56:07;22.50;69.30
75262;DHT22;63859;51.064;4.580;2023-06-04T09:58:34;22.50;68.80
75262;DHT22;63859;51.064;4.580;2023-06-04T10:01:03;22.70;68.60
75262;DHT22;63859;51.064;4.580;2023-06-04T10:03:36;22.70;67.60
75262;DHT22;63859;51.064;4.580;2023-06-04T10:06:06;22.70;66.30
75262;DHT22;63859;51.064;4.580;2023-06-04T10:08:32;22.80;67.10
75262;DHT22;63859;51.064;4.580;2023-06-04T10:11:01;22.90;68.60
75262;DHT22;63859;51.064;4.580;2023-06-04T10:13:35;22.90;66.40
75262;DHT22;63859;51.064;4.580;2023-06-04T10:16:02;23.00;66.80
75262;DHT22;63859;51.064;4.580;2023-06-04T10:18:28;23.20;67.00
75262;DHT22;63859;51.064;4.580;2023-06-04T10:20:57;23.20;66.40
75262;DHT22;63859;51.064;4.580;2023-06-04T10:23:24;23.40;67.00
75262;DHT22;63859;51.064;4.580;2023-06-04T10:25:50;23.50;64.70
75262;DHT22;63859;51.064;4.580;2023-06-04T10:28:19;23.50;65.00
75262;DHT22;63859;51.064;4.580;2023-06-04T10:30:48;23.50;63.90
75262;DHT22;63859;51.064;4.580;2023-06-04T10:33:19;23.50;65.00
75262;DHT22;63859;51.064;4.580;2023-06-04T10:35:46;23.60;65.00
75262;DHT22;63859;51.064;4.580;2023-06-04T10:38:13;23.80;66.40
75262;DHT22;63859;51.064;4.580;2023-06-04T10:40:40;23.80;64.60
75262;DHT22;63859;51.064;4.580;2023-06-04T10:43:10;23.90;64.50
75262;DHT22;63859;51.064;4.580;2023-06-04T10:45:37;24.00;64.10
75262;DHT22;63859;51.064;4.580;2023-06-04T10:48:03;24.00;62.90
75262;DHT22;63859;51.064;4.580;2023-06-04T10:50:30;24.20;63.30
75262;DHT22;63859;51.064;4.580;2023-06-04T10:52:56;24.20;63.40
75262;DHT22;63859;51.064;4.580;2023-06-04T10:55:24;24.30;62.80
75262;DHT22;63859;51.064;4.580;2023-06-04T10:57:58;24.40;62.60
75262;DHT22;63859;51.064;4.580;2023-06-04T11:00:41;24.50;62.90
75262;DHT22;63859;51.064;4.580;2023-06-04T11:03:08;24.60;62.20
75262;DHT22;63859;51.064;4.580;2023-06-04T11:05:41;24.70;61.60
75262;DHT22;63859;51.064;4.580;2023-06-04T11:08:08;24.70;61.40
75262;DHT22;63859;51.064;4.580;2023-06-04T11:10:37;24.90;61.10
75262;DHT22;63859;51.064;4.580;2023-06-04T11:13:04;25.00;62.10
75262;DHT22;63859;51.064;4.580;2023-06-04T11:15:44;25.10;62.70
75262;DHT22;63859;51.064;4.580;2023-06-04T11:18:19;25.20;60.30
75262;DHT22;63859;51.064;4.580;2023-06-04T11:20:47;25.30;58.60
75262;DHT22;63859;51.064;4.580;2023-06-04T11:23:14;25.40;61.20
75262;DHT22;63859;51.064;4.580;2023-06-04T11:25:40;25.60;60.40
75262;DHT22;63859;51.064;4.580;2023-06-04T11:28:07;25.70;59.50
75262;DHT22;63859;51.064;4.580;2023-06-04T11:30:33;25.70;59.50
75262;DHT22;63859;51.064;4.580;2023-06-04T11:33:05;25.70;60.20
75262;DHT22;63859;51.064;4.580;2023-06-04T11:35:39;25.80;60.00
75262;DHT22;63859;51.064;4.580;2023-06-04T11:38:05;26.00;58.70
75262;DHT22;63859;51.064;4.580;2023-06-04T11:40:31;26.00;59.30
75262;DHT22;63859;51.064;4.580;2023-06-04T11:42:57;26.10;58.90
75262;DHT22;63859;51.064;4.580;2023-06-04T11:45:23;26.20;60.10
75262;DHT22;63859;51.064;4.580;2023-06-04T11:47:51;26.00;59.10
75262;DHT22;63859;51.064;4.580;2023-06-04T11:50:17;26.20;58.70
75262;DHT22;63859;51.064;4.580;2023-06-04T11:52:43;26.30;58.90
75262;DHT22;63859;51.064;4.580;2023-06-04T11:55:12;26.40;58.90
75262;DHT22;63859;51.064;4.580;2023-06-04T11:57:39;26.60;58.90
75262;DHT22;63859;51.064;4.580;2023-06-04T12:00:06;26.60;55.90
75262;DHT22;63859;51.064;4.580;2023-06-04T12:02:36;26.60;57.30
75262;DHT22;63859;51.064;4.580;2023-06-04T12:05:16;26.60;57.70
75262;DHT22;63859;51.064;4.580;2023-06-04T12:07:44;26.80;58.20
75262;DHT22;63859;51.064;4.580;2023-06-04T12:10:11;26.80;56.10
75262;DHT22;63859;51.064;4.580;2023-06-04T12:12:40;26.90;58.10
75262;DHT22;63859;51.064;4.580;2023-06-04T12:15:09;26.90;55.70
75262;DHT22;63859;51.064;4.580;2023-06-04T12:17:36;26.90;55.80
75262;DHT22;63859;51.064;4.580;2023-06-04T12:20:03;26.90;56.40
75262;DHT22;63859;51.064;4.580;2023-06-04T12:22:30;27.00;56.90
75262;DHT22;63859;51.064;4.580;2023-06-04T12:24:57;27.00;55.70
75262;DHT22;63859;51.064;4.580;2023-06-04T12:27:25;27.10;55.60
75262;DHT22;63859;51.064;4.580;2023-06-04T12:32:21;27.20;54.10
75262;DHT22;63859;51.064;4.580;2023-06-04T12:34:46;27.10;54.50
75262;DHT22;63859;51.064;4.580;2023-06-04T12:37:13;26.90;55.90
75262;DHT22;63859;51.064;4.580;2023-06-04T12:39:39;26.90;55.90
75262;DHT22;63859;51.064;4.580;2023-06-04T12:42:06;26.90;55.00
75262;DHT22;63859;51.064;4.580;2023-06-04T12:44:32;27.20;53.90
75262;DHT22;63859;51.064;4.580;2023-06-04T12:46:58;27.30;54.70
75262;DHT22;63859;51.064;4.580;2023-06-04T12:49:23;27.30;54.30
75262;DHT22;63859;51.064;4.580;2023-06-04T12:51:49;27.20;54.20
75262;DHT22;63859;51.064;4.580;2023-06-04T12:54:15;27.30;54.70
75262;DHT22;63859;51.064;4.580;2023-06-04T12:56:41;27.40;56.00
75262;DHT22;63859;51.064;4.580;2023-06-04T12:59:07;27.60;55.00
75262;DHT22;63859;51.064;4.580;2023-06-04T13:01:32;27.70;54.10
75262;DHT22;63859;51.064;4.580;2023-06-04T13:03:58;27.70;53.10
75262;DHT22;63859;51.064;4.580;2023-06-04T13:06:25;27.70;53.40
75262;DHT22;63859;51.064;4.580;2023-06-04T13:08:50;27.80;54.10
75262;DHT22;63859;51.064;4.580;2023-06-04T13:11:16;27.90;54.00
75262;DHT22;63859;51.064;4.580;2023-06-04T13:13:43;28.10;54.90
75262;DHT22;63859;51.064;4.580;2023-06-04T13:16:08;28.30;54.30
75262;DHT22;63859;51.064;4.580;2023-06-04T13:18:34;28.30;52.10
75262;DHT22;63859;51.064;4.580;2023-06-04T13:21:00;28.40;52.20
75262;DHT22;63859;51.064;4.580;2023-06-04T13:23:27;28.50;54.40
75262;DHT22;63859;51.064;4.580;2023-06-04T13:25:52;28.30;53.10
75262;DHT22;63859;51.064;4.580;2023-06-04T13:28:18;28.30;52.50
75262;DHT22;63859;51.064;4.580;2023-06-04T13:30:44;28.40;53.70
75262;DHT22;63859;51.064;4.580;2023-06-04T13:33:09;28.30;52.60
75262;DHT22;63859;51.064;4.580;2023-06-04T13:35:35;28.30;54.40
75262;DHT22;63859;51.064;4.580;2023-06-04T13:38:03;28.50;54.10
75262;DHT22;63859;51.064;4.580;2023-06-04T13:40:29;28.70;54.40
75262;DHT22;63859;51.064;4.580;2023-06-04T13:42:55;28.90;53.40
75262;DHT22;63859;51.064;4.580;2023-06-04T13:45:21;28.80;53.10
75262;DHT22;63859;51.064;4.580;2023-06-04T13:47:48;28.40;52.20
75262;DHT22;63859;51.064;4.580;2023-06-04T13:50:13;28.40;52.60
75262;DHT22;63859;51.064;4.580;2023-06-04T13:52:40;28.50;52.60
75262;DHT22;63859;51.064;4.580;2023-06-04T13:55:06;28.70;52.40
75262;DHT22;63859;51.064;4.580;2023-06-04T13:57:31;28.80;53.00
75262;DHT22;63859;51.064;4.580;2023-06-04T13:59:57;28.80;53.10
75262;DHT22;63859;51.064;4.580;2023-06-04T14:02:23;28.90;51.90
75262;DHT22;63859;51.064;4.580;2023-06-04T14:04:50;29.00;52.50
75262;DHT22;63859;51.064;4.580;2023-06-04T14:07:16;28.90;53.00
75262;DHT22;63859;51.064;4.580;2023-06-04T14:09:42;28.80;51.30
75262;DHT22;63859;51.064;4.580;2023-06-04T14:12:08;28.80;52.30
75262;DHT22;63859;51.064;4.580;2023-06-04T14:14:34;29.20;53.20
75262;DHT22;63859;51.064;4.580;2023-06-04T14:17:03;29.30;51.30
75262;DHT22;63859;51.064;4.580;2023-06-04T14:19:29;29.50;51.90
75262;DHT22;63859;51.064;4.580;2023-06-04T14:21:55;29.50;52.40
75262;DHT22;63859;51.064;4.580;2023-06-04T14:24:21;29.40;52.00
75262;DHT22;63859;51.064;4.580;2023-06-04T14:26:47;29.30;51.70
75262;DHT22;63859;51.064;4.580;2023-06-04T14:29:12;29.30;51.70
75262;DHT22;63859;51.064;4.580;2023-06-04T14:31:38;29.40;53.90
75262;DHT22;63859;51.064;4.580;2023-06-04T14:34:04;29.60;51.60
75262;DHT22;63859;51.064;4.580;2023-06-04T14:36:31;29.60;51.70
75262;DHT22;63859;51.064;4.580;2023-06-04T14:38:57;29.70;51.70
75262;DHT22;63859;51.064;4.580;2023-06-04T14:41:22;30.00;51.40
75262;DHT22;63859;51.064;4.580;2023-06-04T14:43:48;30.10;50.90
75262;DHT22;63859;51.064;4.580;2023-06-04T14:46:14;30.00;50.70
75262;DHT22;63859;51.064;4.580;2023-06-04T14:48:39;29.90;52.90
75262;DHT22;63859;51.064;4.580;2023-06-04T14:51:05;30.00;50.90
75262;DHT22;63859;51.064;4.580;2023-06-04T14:53:31;30.00;50.60
75262;DHT22;63859;51.064;4.580;2023-06-04T14:55:56;30.00;51.50
75262;DHT22;63859;51.064;4.580;2023-06-04T14:58:22;30.10;51.20
75262;DHT22;63859;51.064;4.580;2023-06-04T15:00:47;30.30;50.10
75262;DHT22;63859;51.064;4.580;2023-06-04T15:03:13;30.30;50.00
75262;DHT22;63859;51.064;4.580;2023-06-04T15:05:39;30.30;50.10
75262;DHT22;63859;51.064;4.580;2023-06-04T15:08:04;30.60;49.80
75262;DHT22;63859;51.064;4.580;2023-06-04T15:10:30;30.80;50.20
75262;DHT22;63859;51.064;4.580;2023-06-04T15:12:57;30.80;49.00
75262;DHT22;63859;51.064;4.580;2023-06-04T15:15:22;30.90;49.50
75262;DHT22;63859;51.064;4.580;2023-06-04T15:17:49;30.90;49.70
75262;DHT22;63859;51.064;4.580;2023-06-04T15:20:15;31.10;48.70
75262;DHT22;63859;51.064;4.580;2023-06-04T15:22:41;31.20;49.40
75262;DHT22;63859;51.064;4.580;2023-06-04T15:25:07;31.20;49.90
75262;DHT22;63859;51.064;4.580;2023-06-04T15:27:33;31.30;49.50
75262;DHT22;63859;51.064;4.580;2023-06-04T15:29:59;31.20;49.60
75262;DHT22;63859;51.064;4.580;2023-06-04T15:32:24;31.20;50.20
75262;DHT22;63859;51.064;4.580;2023-06-04T15:34:50;31.30;48.20